HAZ4751 ZYTX-ZHCC
Flight info
| Callsign | HAZ4751 |
|---|---|
| Flight time | N/A |
| Altitude | 36100 |
| Route | TOSID A588 UDETI W106 MAKNO W5 HCH W4 TAMIX/K0846S1130 B208 NOPIN |
| Aircraft | A320/M-SDE3FGHIRWY/LB1 |
Departure
| Time | 2026-05-05 22:49 |
|---|---|
| Airport | Shenyang Taoxian International Airport (ZYTX) |
Arrival
| Time | N/A |
|---|---|
| Airport | Zhengzhou Xinzheng International Airport (ZHCC) |
| Time | Latitude | Longitude | Altitude | Speed | Heading |
|---|---|---|---|---|---|
| 2026-05-05 22:31 | 41.63713 | 123.48920 | 206 ft | 0 kts | 139° |
| 2026-05-05 22:40 | 41.63721 | 123.48910 | 206 ft | 2 kts | 138° |
| 2026-05-05 22:40 | 41.63732 | 123.48898 | 207 ft | 2 kts | 139° |
| 2026-05-05 22:40 | 41.63743 | 123.48885 | 207 ft | 2 kts | 139° |
| 2026-05-05 22:40 | 41.63752 | 123.48875 | 207 ft | 0 kts | 139° |
| 2026-05-05 22:41 | 41.63760 | 123.48861 | 206 ft | 2 kts | 112° |
| 2026-05-05 22:41 | 41.63763 | 123.48841 | 207 ft | 2 kts | 85° |
| 2026-05-05 22:41 | 41.63759 | 123.48822 | 207 ft | 2 kts | 57° |
| 2026-05-05 22:41 | 41.63755 | 123.48814 | 206 ft | 1 kts | 44° |
| 2026-05-05 22:42 | 41.63752 | 123.48811 | 207 ft | 0 kts | 48° |
| 2026-05-05 22:43 | 41.63755 | 123.48815 | 206 ft | 1 kts | 48° |
| 2026-05-05 22:44 | 41.63770 | 123.48837 | 206 ft | 4 kts | 50° |
| 2026-05-05 22:44 | 41.63799 | 123.48882 | 206 ft | 8 kts | 50° |
| 2026-05-05 22:44 | 41.63842 | 123.48949 | 206 ft | 9 kts | 50° |
| 2026-05-05 22:44 | 41.63886 | 123.49015 | 206 ft | 10 kts | 48° |
| 2026-05-05 22:45 | 41.63937 | 123.49090 | 206 ft | 11 kts | 49° |
| 2026-05-05 22:45 | 41.63993 | 123.49175 | 206 ft | 12 kts | 50° |
| 2026-05-05 22:45 | 41.64065 | 123.49254 | 206 ft | 14 kts | 9° |
| 2026-05-05 22:45 | 41.64158 | 123.49203 | 206 ft | 15 kts | 319° |
| 2026-05-05 22:46 | 41.64249 | 123.49117 | 207 ft | 16 kts | 2° |
| 2026-05-05 22:46 | 41.64339 | 123.49219 | 206 ft | 18 kts | 49° |
| 2026-05-05 22:46 | 41.64426 | 123.49351 | 206 ft | 19 kts | 48° |
| 2026-05-05 22:46 | 41.64516 | 123.49487 | 207 ft | 18 kts | 49° |
| 2026-05-05 22:47 | 41.64601 | 123.49614 | 207 ft | 18 kts | 50° |
| 2026-05-05 22:47 | 41.64686 | 123.49744 | 206 ft | 18 kts | 48° |
| 2026-05-05 22:47 | 41.64771 | 123.49872 | 206 ft | 15 kts | 49° |
| 2026-05-05 22:47 | 41.64863 | 123.49877 | 206 ft | 15 kts | 313° |
| 2026-05-05 22:48 | 41.64926 | 123.49764 | 206 ft | 16 kts | 265° |
| 2026-05-05 22:48 | 41.64848 | 123.49625 | 206 ft | 31 kts | 227° |
| 2026-05-05 22:48 | 41.64530 | 123.49156 | 207 ft | 102 kts | 228° |
| 2026-05-05 22:48 | 41.63919 | 123.48236 | 216 ft | 159 kts | 227° |
| 2026-05-05 22:49 | 41.63163 | 123.47142 | 779 ft | 162 kts | 225° |
| 2026-05-05 22:49 | 41.62426 | 123.46030 | 1455 ft | 162 kts | 228° |
| 2026-05-05 22:49 | 41.61711 | 123.44898 | 2204 ft | 159 kts | 228° |
| 2026-05-05 22:49 | 41.60963 | 123.43733 | 2603 ft | 173 kts | 228° |
| 2026-05-05 22:50 | 41.60128 | 123.42444 | 2910 ft | 195 kts | 228° |
| 2026-05-05 22:50 | 41.59210 | 123.41033 | 3337 ft | 212 kts | 229° |
| 2026-05-05 22:50 | 41.58204 | 123.39496 | 3779 ft | 230 kts | 229° |
| 2026-05-05 22:50 | 41.57063 | 123.37949 | 4374 ft | 241 kts | 216° |
| 2026-05-05 22:51 | 41.55465 | 123.37185 | 5188 ft | 251 kts | 191° |
| 2026-05-05 22:51 | 41.53709 | 123.37157 | 6021 ft | 255 kts | 187° |
| 2026-05-05 22:51 | 41.51933 | 123.37175 | 6815 ft | 259 kts | 188° |
| 2026-05-05 22:51 | 41.50137 | 123.37174 | 7630 ft | 261 kts | 187° |
| 2026-05-05 22:52 | 41.48331 | 123.37169 | 8468 ft | 263 kts | 187° |
| 2026-05-05 22:52 | 41.46523 | 123.37169 | 9286 ft | 265 kts | 187° |
| 2026-05-05 22:52 | 41.44665 | 123.37167 | 10128 ft | 267 kts | 187° |
| 2026-05-05 22:52 | 41.42797 | 123.37161 | 10722 ft | 277 kts | 187° |
| 2026-05-05 22:53 | 41.40812 | 123.37212 | 11083 ft | 298 kts | 181° |
| 2026-05-05 22:53 | 41.39178 | 123.37569 | 11331 ft | 317 kts | 172° |
| 2026-05-05 22:53 | 41.37030 | 123.38578 | 11637 ft | 342 kts | 162° |
| 2026-05-05 22:53 | 41.34860 | 123.40010 | 12138 ft | 353 kts | 159° |
| 2026-05-05 22:54 | 41.32686 | 123.41508 | 12768 ft | 358 kts | 158° |
| 2026-05-05 22:54 | 41.30471 | 123.43041 | 13419 ft | 361 kts | 158° |
| 2026-05-05 22:54 | 41.28235 | 123.44583 | 14049 ft | 365 kts | 158° |
| 2026-05-05 22:54 | 41.25973 | 123.46133 | 14633 ft | 370 kts | 158° |
| 2026-05-05 22:55 | 41.23672 | 123.47706 | 15210 ft | 374 kts | 158° |
| 2026-05-05 22:55 | 41.21370 | 123.49274 | 15793 ft | 377 kts | 158° |
| 2026-05-05 22:55 | 41.19020 | 123.50874 | 16379 ft | 380 kts | 158° |
| 2026-05-05 22:55 | 41.16653 | 123.52480 | 16947 ft | 383 kts | 158° |
| 2026-05-05 22:56 | 41.14301 | 123.54075 | 17465 ft | 387 kts | 158° |
| 2026-05-05 22:56 | 41.11870 | 123.55721 | 17995 ft | 390 kts | 158° |
| 2026-05-05 22:56 | 41.09459 | 123.57355 | 18477 ft | 394 kts | 158° |
| 2026-05-05 22:56 | 41.07032 | 123.58996 | 18979 ft | 397 kts | 158° |
| 2026-05-05 22:57 | 41.04545 | 123.60677 | 19457 ft | 400 kts | 158° |
| 2026-05-05 22:57 | 41.02060 | 123.62354 | 19900 ft | 405 kts | 158° |
| 2026-05-05 22:57 | 40.99535 | 123.64060 | 20342 ft | 409 kts | 158° |
| 2026-05-05 22:57 | 40.97022 | 123.65755 | 20766 ft | 412 kts | 158° |
| 2026-05-05 22:58 | 40.94449 | 123.67486 | 21203 ft | 416 kts | 158° |
| 2026-05-05 22:58 | 40.91841 | 123.69166 | 21645 ft | 416 kts | 163° |
| 2026-05-05 22:58 | 40.89074 | 123.69932 | 22003 ft | 407 kts | 184° |
| 2026-05-05 22:58 | 40.86275 | 123.69443 | 22442 ft | 397 kts | 202° |
| 2026-05-05 22:59 | 40.83823 | 123.67968 | 22869 ft | 392 kts | 213° |
| 2026-05-05 22:59 | 40.81401 | 123.66203 | 23262 ft | 396 kts | 213° |
| 2026-05-05 22:59 | 40.78919 | 123.64601 | 23653 ft | 401 kts | 209° |
| 2026-05-05 22:59 | 40.76320 | 123.63238 | 24015 ft | 407 kts | 205° |
| 2026-05-05 23:00 | 40.70826 | 123.61116 | 24717 ft | 416 kts | 201° |
| 2026-05-05 23:00 | 40.68044 | 123.60126 | 25062 ft | 419 kts | 201° |
| 2026-05-05 23:00 | 40.65214 | 123.59124 | 25428 ft | 421 kts | 200° |
| 2026-05-05 23:01 | 40.62362 | 123.58109 | 25784 ft | 423 kts | 201° |
| 2026-05-05 23:01 | 40.59579 | 123.56933 | 26143 ft | 422 kts | 206° |
| 2026-05-05 23:01 | 40.56863 | 123.55482 | 26458 ft | 421 kts | 210° |
| 2026-05-05 23:01 | 40.54269 | 123.53777 | 26771 ft | 421 kts | 214° |
| 2026-05-05 23:02 | 40.51711 | 123.51920 | 27063 ft | 423 kts | 214° |
| 2026-05-05 23:02 | 40.49119 | 123.50025 | 27355 ft | 426 kts | 214° |
| 2026-05-05 23:02 | 40.46544 | 123.48141 | 27665 ft | 428 kts | 214° |
| 2026-05-05 23:02 | 40.43912 | 123.46221 | 27922 ft | 431 kts | 214° |
| 2026-05-05 23:03 | 40.41298 | 123.44317 | 28162 ft | 434 kts | 215° |
| 2026-05-05 23:03 | 40.38644 | 123.42387 | 28425 ft | 436 kts | 215° |
| 2026-05-05 23:03 | 40.36008 | 123.40470 | 28671 ft | 438 kts | 215° |
| 2026-05-05 23:03 | 40.33356 | 123.38542 | 28927 ft | 440 kts | 215° |
| 2026-05-05 23:04 | 40.30648 | 123.36578 | 29143 ft | 443 kts | 215° |
| 2026-05-05 23:04 | 40.27961 | 123.34631 | 29385 ft | 444 kts | 214° |
| 2026-05-05 23:04 | 40.25247 | 123.32667 | 29613 ft | 446 kts | 214° |
| 2026-05-05 23:04 | 40.22548 | 123.30715 | 29843 ft | 448 kts | 214° |
| 2026-05-05 23:05 | 40.19838 | 123.28755 | 30131 ft | 448 kts | 214° |
| 2026-05-05 23:05 | 40.17098 | 123.26778 | 30409 ft | 448 kts | 214° |
| 2026-05-05 23:05 | 40.14366 | 123.24812 | 30683 ft | 448 kts | 215° |
| 2026-05-05 23:05 | 40.11640 | 123.22849 | 30941 ft | 449 kts | 215° |
| 2026-05-05 23:06 | 40.08934 | 123.20901 | 31198 ft | 449 kts | 215° |
| 2026-05-05 23:06 | 40.06207 | 123.18940 | 31491 ft | 449 kts | 216° |
| 2026-05-05 23:06 | 40.03450 | 123.16952 | 31767 ft | 448 kts | 216° |
| 2026-05-05 23:06 | 40.00730 | 123.14975 | 32009 ft | 449 kts | 216° |
| 2026-05-05 23:07 | 39.98025 | 123.13002 | 32224 ft | 450 kts | 217° |
| 2026-05-05 23:07 | 39.95284 | 123.11004 | 32481 ft | 450 kts | 216° |
| 2026-05-05 23:07 | 39.92561 | 123.09026 | 32771 ft | 449 kts | 217° |
| 2026-05-05 23:07 | 39.89850 | 123.07055 | 32980 ft | 450 kts | 217° |
| 2026-05-05 23:08 | 39.87099 | 123.05057 | 33165 ft | 452 kts | 217° |
| 2026-05-05 23:08 | 39.84368 | 123.03078 | 33417 ft | 451 kts | 217° |
| 2026-05-05 23:08 | 39.81617 | 123.01086 | 33647 ft | 451 kts | 217° |
| 2026-05-05 23:08 | 39.78883 | 122.99107 | 33844 ft | 452 kts | 217° |
| 2026-05-05 23:09 | 39.76159 | 122.97137 | 34084 ft | 452 kts | 218° |
| 2026-05-05 23:09 | 39.73436 | 122.95171 | 34307 ft | 452 kts | 218° |
| 2026-05-05 23:09 | 39.70657 | 122.93163 | 34497 ft | 453 kts | 218° |
| 2026-05-05 23:09 | 39.67934 | 122.91202 | 34679 ft | 454 kts | 218° |
| 2026-05-05 23:10 | 39.65155 | 122.89198 | 34846 ft | 455 kts | 218° |
| 2026-05-05 23:10 | 39.62405 | 122.87219 | 34955 ft | 457 kts | 218° |
| 2026-05-05 23:10 | 39.59616 | 122.85213 | 35114 ft | 458 kts | 218° |
| 2026-05-05 23:10 | 39.56864 | 122.83236 | 35297 ft | 458 kts | 218° |
| 2026-05-05 23:11 | 39.54062 | 122.81227 | 35464 ft | 459 kts | 218° |
| 2026-05-05 23:11 | 39.51271 | 122.79227 | 35564 ft | 460 kts | 218° |
| 2026-05-05 23:11 | 39.45661 | 122.75210 | 35799 ft | 463 kts | 218° |
| 2026-05-05 23:12 | 39.42844 | 122.73195 | 35922 ft | 464 kts | 218° |
| 2026-05-05 23:12 | 39.40046 | 122.71197 | 35999 ft | 463 kts | 218° |
| 2026-05-05 23:12 | 39.34391 | 122.67164 | 36002 ft | 464 kts | 218° |
| 2026-05-05 23:13 | 39.28757 | 122.63151 | 36009 ft | 465 kts | 218° |
| 2026-05-05 23:13 | 39.23245 | 122.58932 | 36008 ft | 460 kts | 221° |
| 2026-05-05 23:14 | 39.17791 | 122.54566 | 36005 ft | 462 kts | 221° |
| 2026-05-05 23:14 | 39.12364 | 122.50227 | 36000 ft | 462 kts | 221° |
| 2026-05-05 23:15 | 39.06896 | 122.45869 | 36005 ft | 463 kts | 221° |
| 2026-05-05 23:15 | 39.01443 | 122.41527 | 36001 ft | 464 kts | 221° |
| 2026-05-05 23:16 | 38.95986 | 122.37196 | 35996 ft | 463 kts | 221° |
| 2026-05-05 23:16 | 38.90493 | 122.32836 | 35999 ft | 464 kts | 221° |
| 2026-05-05 23:17 | 38.84993 | 122.28482 | 35997 ft | 466 kts | 221° |
| 2026-05-05 23:17 | 38.79503 | 122.24146 | 35993 ft | 465 kts | 221° |
| 2026-05-05 23:18 | 38.74265 | 122.19463 | 35989 ft | 452 kts | 231° |
| 2026-05-05 23:18 | 38.70163 | 122.13629 | 35995 ft | 435 kts | 244° |
| 2026-05-05 23:19 | 38.67328 | 122.06999 | 35998 ft | 421 kts | 257° |
| 2026-05-05 23:19 | 38.65575 | 121.99937 | 36005 ft | 415 kts | 262° |
| 2026-05-05 23:20 | 38.64022 | 121.92899 | 36001 ft | 413 kts | 262° |
| 2026-05-05 23:20 | 38.62449 | 121.85814 | 35991 ft | 414 kts | 262° |
| 2026-05-05 23:21 | 38.60870 | 121.78750 | 35983 ft | 415 kts | 262° |
| 2026-05-05 23:21 | 38.59291 | 121.71707 | 35977 ft | 414 kts | 262° |
| 2026-05-05 23:22 | 38.57708 | 121.64683 | 35981 ft | 414 kts | 262° |
| 2026-05-05 23:22 | 38.56119 | 121.57651 | 35971 ft | 414 kts | 262° |
| 2026-05-05 23:23 | 38.54520 | 121.50590 | 35968 ft | 413 kts | 262° |
| 2026-05-05 23:23 | 38.52928 | 121.43591 | 35962 ft | 414 kts | 262° |
| 2026-05-05 23:24 | 38.51323 | 121.36559 | 35952 ft | 411 kts | 262° |
| 2026-05-05 23:24 | 38.49719 | 121.29545 | 35948 ft | 412 kts | 262° |
| 2026-05-05 23:25 | 38.48086 | 121.22544 | 35944 ft | 415 kts | 260° |
| 2026-05-05 23:25 | 38.46016 | 121.15651 | 35941 ft | 421 kts | 254° |
| 2026-05-05 23:26 | 38.43367 | 121.08979 | 35943 ft | 428 kts | 249° |
| 2026-05-05 23:26 | 38.40216 | 121.02457 | 35947 ft | 432 kts | 247° |
| 2026-05-05 23:27 | 38.37032 | 120.95990 | 35942 ft | 431 kts | 247° |
| 2026-05-05 23:27 | 38.33851 | 120.89556 | 35946 ft | 430 kts | 247° |
| 2026-05-05 23:28 | 38.30679 | 120.83151 | 35945 ft | 429 kts | 247° |
| 2026-05-05 23:28 | 38.27115 | 120.76994 | 35943 ft | 442 kts | 238° |
| 2026-05-05 23:29 | 38.22621 | 120.71497 | 35947 ft | 456 kts | 228° |
| 2026-05-05 23:29 | 38.17299 | 120.66968 | 35940 ft | 469 kts | 218° |
| 2026-05-05 23:30 | 38.12436 | 120.63866 | 35945 ft | 470 kts | 215° |
| 2026-05-05 23:30 | 38.05412 | 120.59972 | 35939 ft | 479 kts | 208° |
| 2026-05-05 23:31 | 37.98962 | 120.57655 | 35935 ft | 489 kts | 200° |
| 2026-05-05 23:31 | 37.92171 | 120.56438 | 35930 ft | 498 kts | 192° |
| 2026-05-05 23:32 | 37.85230 | 120.55946 | 35935 ft | 499 kts | 191° |
| 2026-05-05 23:32 | 37.78292 | 120.55455 | 35940 ft | 501 kts | 191° |
| 2026-05-05 23:33 | 37.74913 | 120.54895 | 35930 ft | 487 kts | 203° |
| 2026-05-05 23:33 | 37.71804 | 120.53398 | 35947 ft | 467 kts | 218° |
| 2026-05-05 23:33 | 37.69181 | 120.51114 | 35960 ft | 451 kts | 232° |
| 2026-05-05 23:33 | 37.67130 | 120.48285 | 35966 ft | 435 kts | 244° |
| 2026-05-05 23:34 | 37.65641 | 120.45064 | 35961 ft | 421 kts | 255° |
| 2026-05-05 23:34 | 37.64728 | 120.41626 | 35964 ft | 411 kts | 266° |
| 2026-05-05 23:34 | 37.64099 | 120.34535 | 35968 ft | 403 kts | 271° |
| 2026-05-05 23:35 | 37.63616 | 120.27561 | 35950 ft | 403 kts | 271° |
| 2026-05-05 23:35 | 37.63123 | 120.20531 | 35944 ft | 404 kts | 271° |
| 2026-05-05 23:36 | 37.62618 | 120.13453 | 35941 ft | 404 kts | 271° |
| 2026-05-05 23:36 | 37.62111 | 120.06457 | 35945 ft | 402 kts | 271° |
| 2026-05-05 23:37 | 37.61596 | 119.99443 | 35943 ft | 402 kts | 271° |
| 2026-05-05 23:37 | 37.61079 | 119.92450 | 35947 ft | 402 kts | 271° |
| 2026-05-05 23:38 | 37.60563 | 119.85480 | 35944 ft | 401 kts | 271° |
| 2026-05-05 23:38 | 37.60036 | 119.78458 | 35937 ft | 402 kts | 271° |
| 2026-05-05 23:39 | 37.59511 | 119.71520 | 35941 ft | 401 kts | 271° |
| 2026-05-05 23:39 | 37.58992 | 119.64519 | 35931 ft | 400 kts | 271° |
| 2026-05-05 23:40 | 37.58528 | 119.57565 | 35923 ft | 400 kts | 272° |
| 2026-05-05 23:40 | 37.58070 | 119.50600 | 35916 ft | 400 kts | 271° |
| 2026-05-05 23:41 | 37.57586 | 119.43633 | 35919 ft | 400 kts | 271° |
| 2026-05-05 23:41 | 37.57094 | 119.36671 | 35909 ft | 400 kts | 271° |
| 2026-05-05 23:42 | 37.56599 | 119.29705 | 35908 ft | 401 kts | 270° |
| 2026-05-05 23:42 | 37.56097 | 119.22742 | 35907 ft | 401 kts | 271° |
| 2026-05-05 23:43 | 37.55597 | 119.15771 | 35909 ft | 401 kts | 270° |
| 2026-05-05 23:43 | 37.55091 | 119.08833 | 35912 ft | 400 kts | 270° |
| 2026-05-05 23:44 | 37.54577 | 119.01857 | 35903 ft | 400 kts | 270° |
| 2026-05-05 23:44 | 37.54065 | 118.94933 | 35900 ft | 400 kts | 270° |
| 2026-05-05 23:45 | 37.53540 | 118.87935 | 35908 ft | 400 kts | 270° |
| 2026-05-05 23:45 | 37.53018 | 118.81012 | 35911 ft | 400 kts | 270° |
| 2026-05-05 23:46 | 37.52265 | 118.74037 | 35906 ft | 403 kts | 267° |
| 2026-05-05 23:46 | 37.51409 | 118.67097 | 35899 ft | 403 kts | 267° |
| 2026-05-05 23:47 | 37.50544 | 118.60138 | 35896 ft | 404 kts | 267° |
| 2026-05-05 23:47 | 37.49673 | 118.53166 | 35892 ft | 403 kts | 267° |
| 2026-05-05 23:48 | 37.48801 | 118.46243 | 35893 ft | 403 kts | 267° |
| 2026-05-05 23:48 | 37.47916 | 118.39256 | 35892 ft | 403 kts | 267° |
| 2026-05-05 23:49 | 37.47036 | 118.32327 | 35891 ft | 404 kts | 266° |
| 2026-05-05 23:49 | 37.46148 | 118.25369 | 35883 ft | 404 kts | 266° |
| 2026-05-05 23:50 | 37.45265 | 118.18426 | 35884 ft | 404 kts | 266° |
| 2026-05-05 23:50 | 37.44403 | 118.11474 | 35879 ft | 404 kts | 266° |
| 2026-05-05 23:51 | 37.43530 | 118.04504 | 35879 ft | 404 kts | 266° |
| 2026-05-05 23:51 | 37.42656 | 117.97549 | 35875 ft | 405 kts | 266° |
| 2026-05-05 23:52 | 37.41774 | 117.90597 | 35868 ft | 404 kts | 266° |
| 2026-05-05 23:52 | 37.40885 | 117.83615 | 35862 ft | 403 kts | 266° |
| 2026-05-05 23:53 | 37.39996 | 117.76655 | 35861 ft | 404 kts | 266° |
| 2026-05-05 23:53 | 37.39102 | 117.69710 | 35858 ft | 405 kts | 266° |
| 2026-05-05 23:54 | 37.38204 | 117.62761 | 35856 ft | 406 kts | 266° |
| 2026-05-05 23:54 | 37.37295 | 117.55774 | 35855 ft | 405 kts | 266° |
| 2026-05-05 23:55 | 37.36353 | 117.48785 | 35855 ft | 407 kts | 264° |
| 2026-05-05 23:55 | 37.34980 | 117.41889 | 35857 ft | 411 kts | 259° |
| 2026-05-05 23:56 | 37.33054 | 117.35132 | 35851 ft | 415 kts | 254° |
| 2026-05-05 23:56 | 37.30716 | 117.28509 | 35852 ft | 416 kts | 252° |
| 2026-05-05 23:57 | 37.28353 | 117.21898 | 35853 ft | 416 kts | 252° |
| 2026-05-05 23:57 | 37.25988 | 117.15311 | 35863 ft | 417 kts | 252° |
| 2026-05-05 23:58 | 37.23599 | 117.08681 | 35860 ft | 417 kts | 252° |
| 2026-05-05 23:58 | 37.21217 | 117.02080 | 35859 ft | 417 kts | 252° |
| 2026-05-05 23:59 | 37.18831 | 116.95513 | 35857 ft | 416 kts | 251° |
| 2026-05-05 23:59 | 37.16429 | 116.88922 | 35853 ft | 415 kts | 251° |
| 2026-05-06 00:00 | 37.14023 | 116.82336 | 35849 ft | 417 kts | 251° |
| 2026-05-06 00:00 | 37.11730 | 116.75724 | 35847 ft | 415 kts | 253° |
| 2026-05-06 00:01 | 37.09493 | 116.69075 | 35846 ft | 416 kts | 253° |
| 2026-05-06 00:01 | 37.07243 | 116.62447 | 35842 ft | 416 kts | 253° |
| 2026-05-06 00:02 | 37.04975 | 116.55791 | 35835 ft | 415 kts | 253° |
| 2026-05-06 00:02 | 37.02718 | 116.49184 | 35834 ft | 415 kts | 253° |
| 2026-05-06 00:03 | 37.00454 | 116.42568 | 35845 ft | 415 kts | 252° |
| 2026-05-06 00:03 | 36.98196 | 116.35987 | 35849 ft | 413 kts | 252° |
| 2026-05-06 00:04 | 36.95923 | 116.29382 | 35845 ft | 414 kts | 252° |
| 2026-05-06 00:04 | 36.93644 | 116.22767 | 35849 ft | 414 kts | 252° |
| 2026-05-06 00:05 | 36.90236 | 116.12902 | 35849 ft | 413 kts | 252° |
| 2026-05-06 00:06 | 36.87959 | 116.06334 | 35849 ft | 414 kts | 252° |
| 2026-05-06 00:06 | 36.85671 | 115.99741 | 35845 ft | 412 kts | 252° |
| 2026-05-06 00:07 | 36.83390 | 115.93193 | 35839 ft | 413 kts | 252° |
| 2026-05-06 00:07 | 36.81115 | 115.86663 | 35828 ft | 412 kts | 252° |
| 2026-05-06 00:08 | 36.78824 | 115.80123 | 35831 ft | 413 kts | 252° |
| 2026-05-06 00:08 | 36.76516 | 115.73543 | 35824 ft | 413 kts | 252° |
| 2026-05-06 00:09 | 36.74226 | 115.67019 | 35830 ft | 414 kts | 252° |
| 2026-05-06 00:09 | 36.71917 | 115.60459 | 35829 ft | 413 kts | 252° |
| 2026-05-06 00:10 | 36.69623 | 115.53960 | 35830 ft | 413 kts | 252° |
| 2026-05-06 00:10 | 36.67299 | 115.47387 | 35830 ft | 412 kts | 252° |
| 2026-05-06 00:11 | 36.64981 | 115.40868 | 35822 ft | 413 kts | 252° |
| 2026-05-06 00:11 | 36.62678 | 115.34379 | 35829 ft | 413 kts | 251° |
| 2026-05-06 00:12 | 36.60346 | 115.27824 | 35832 ft | 414 kts | 251° |
| 2026-05-06 00:12 | 36.57875 | 115.21404 | 35829 ft | 417 kts | 247° |
| 2026-05-06 00:13 | 36.54805 | 115.15249 | 35828 ft | 420 kts | 241° |
| 2026-05-06 00:13 | 36.51171 | 115.09543 | 35823 ft | 427 kts | 235° |
| 2026-05-06 00:14 | 36.46984 | 115.04281 | 35831 ft | 430 kts | 231° |
| 2026-05-06 00:14 | 36.42669 | 114.99145 | 35824 ft | 430 kts | 231° |
| 2026-05-06 00:14 | 36.40545 | 114.96535 | 35718 ft | 429 kts | 233° |
| 2026-05-06 00:15 | 36.38526 | 114.93806 | 35415 ft | 424 kts | 236° |
| 2026-05-06 00:15 | 36.36662 | 114.91022 | 35120 ft | 420 kts | 238° |
| 2026-05-06 00:15 | 36.34940 | 114.88163 | 34829 ft | 415 kts | 241° |
| 2026-05-06 00:15 | 36.33332 | 114.85191 | 34535 ft | 411 kts | 243° |
| 2026-05-06 00:16 | 36.31855 | 114.82156 | 34241 ft | 411 kts | 245° |
| 2026-05-06 00:16 | 36.30424 | 114.79137 | 33953 ft | 413 kts | 245° |
| 2026-05-06 00:16 | 36.28961 | 114.76040 | 33659 ft | 413 kts | 244° |
| 2026-05-06 00:16 | 36.27513 | 114.72987 | 33377 ft | 414 kts | 244° |
| 2026-05-06 00:17 | 36.26040 | 114.69960 | 33114 ft | 416 kts | 244° |
| 2026-05-06 00:17 | 36.24535 | 114.66885 | 32848 ft | 417 kts | 243° |
| 2026-05-06 00:17 | 36.23039 | 114.63837 | 32587 ft | 418 kts | 243° |
| 2026-05-06 00:17 | 36.21530 | 114.60761 | 32322 ft | 419 kts | 243° |
| 2026-05-06 00:18 | 36.20015 | 114.57676 | 31947 ft | 416 kts | 243° |
| 2026-05-06 00:18 | 36.18521 | 114.54632 | 31165 ft | 417 kts | 243° |
| 2026-05-06 00:18 | 36.17032 | 114.51595 | 30111 ft | 423 kts | 243° |
| 2026-05-06 00:18 | 36.15498 | 114.48465 | 29022 ft | 428 kts | 242° |
| 2026-05-06 00:19 | 36.13959 | 114.45338 | 28296 ft | 425 kts | 242° |
| 2026-05-06 00:19 | 36.12438 | 114.42254 | 27722 ft | 418 kts | 242° |
| 2026-05-06 00:19 | 36.10952 | 114.39245 | 27138 ft | 412 kts | 242° |
| 2026-05-06 00:19 | 36.09459 | 114.36218 | 26465 ft | 408 kts | 242° |
| 2026-05-06 00:20 | 36.08006 | 114.33278 | 25834 ft | 404 kts | 241° |
| 2026-05-06 00:20 | 36.06543 | 114.30318 | 25198 ft | 399 kts | 241° |
| 2026-05-06 00:20 | 36.05117 | 114.27435 | 24574 ft | 396 kts | 241° |
| 2026-05-06 00:20 | 36.03698 | 114.24571 | 23965 ft | 391 kts | 241° |
| 2026-05-06 00:21 | 36.02282 | 114.21707 | 23378 ft | 387 kts | 241° |
| 2026-05-06 00:21 | 36.00890 | 114.18896 | 22755 ft | 383 kts | 241° |
| 2026-05-06 00:21 | 35.99509 | 114.16117 | 22141 ft | 380 kts | 241° |
| 2026-05-06 00:21 | 35.98141 | 114.13357 | 21510 ft | 378 kts | 240° |
| 2026-05-06 00:22 | 35.96779 | 114.10616 | 20866 ft | 376 kts | 240° |
| 2026-05-06 00:22 | 35.95414 | 114.07873 | 20205 ft | 376 kts | 240° |
| 2026-05-06 00:22 | 35.94053 | 114.05135 | 19571 ft | 374 kts | 240° |
| 2026-05-06 00:22 | 35.92707 | 114.02435 | 18951 ft | 373 kts | 240° |
| 2026-05-06 00:23 | 35.91343 | 113.99698 | 18336 ft | 372 kts | 240° |
| 2026-05-06 00:23 | 35.90008 | 113.97017 | 17729 ft | 370 kts | 240° |
| 2026-05-06 00:23 | 35.88659 | 113.94316 | 17128 ft | 369 kts | 240° |
| 2026-05-06 00:23 | 35.87322 | 113.91644 | 16578 ft | 367 kts | 240° |
| 2026-05-06 00:24 | 35.85978 | 113.88956 | 15994 ft | 366 kts | 239° |
| 2026-05-06 00:24 | 35.84657 | 113.86316 | 15437 ft | 364 kts | 239° |
| 2026-05-06 00:24 | 35.83329 | 113.83667 | 14884 ft | 362 kts | 239° |
| 2026-05-06 00:24 | 35.82029 | 113.81072 | 14367 ft | 359 kts | 239° |
| 2026-05-06 00:25 | 35.80718 | 113.78456 | 13823 ft | 358 kts | 239° |
| 2026-05-06 00:25 | 35.79418 | 113.75867 | 13284 ft | 356 kts | 239° |
| 2026-05-06 00:25 | 35.78133 | 113.73312 | 12769 ft | 352 kts | 239° |
| 2026-05-06 00:25 | 35.76843 | 113.70745 | 12243 ft | 349 kts | 239° |
| 2026-05-06 00:26 | 35.75576 | 113.68228 | 11719 ft | 346 kts | 239° |
| 2026-05-06 00:26 | 35.74322 | 113.65736 | 11194 ft | 343 kts | 239° |
| 2026-05-06 00:26 | 35.73069 | 113.63250 | 10662 ft | 340 kts | 239° |
| 2026-05-06 00:26 | 35.71828 | 113.60786 | 10249 ft | 334 kts | 239° |
| 2026-05-06 00:27 | 35.70624 | 113.58403 | 10054 ft | 321 kts | 239° |
| 2026-05-06 00:27 | 35.69466 | 113.56111 | 9861 ft | 309 kts | 239° |
| 2026-05-06 00:27 | 35.68358 | 113.53919 | 9678 ft | 298 kts | 239° |
| 2026-05-06 00:27 | 35.67277 | 113.51784 | 9507 ft | 288 kts | 239° |
| 2026-05-06 00:28 | 35.66249 | 113.49752 | 9294 ft | 280 kts | 239° |
| 2026-05-06 00:28 | 35.65218 | 113.47715 | 8938 ft | 278 kts | 239° |
| 2026-05-06 00:28 | 35.64104 | 113.45789 | 8533 ft | 278 kts | 229° |
| 2026-05-06 00:28 | 35.62675 | 113.44202 | 8174 ft | 277 kts | 217° |
| 2026-05-06 00:29 | 35.61015 | 113.43039 | 7819 ft | 276 kts | 205° |
| 2026-05-06 00:29 | 35.59168 | 113.42329 | 7448 ft | 276 kts | 193° |
| 2026-05-06 00:29 | 35.57264 | 113.42123 | 7121 ft | 275 kts | 181° |
| 2026-05-06 00:29 | 35.55365 | 113.42423 | 7049 ft | 279 kts | 169° |
| 2026-05-06 00:30 | 35.53498 | 113.43141 | 7047 ft | 281 kts | 163° |
| 2026-05-06 00:30 | 35.51667 | 113.43952 | 7044 ft | 282 kts | 162° |
| 2026-05-06 00:30 | 35.49819 | 113.44787 | 7039 ft | 281 kts | 163° |
| 2026-05-06 00:30 | 35.47984 | 113.45609 | 7028 ft | 282 kts | 163° |
| 2026-05-06 00:31 | 35.46124 | 113.46437 | 7016 ft | 282 kts | 163° |
| 2026-05-06 00:31 | 35.44281 | 113.47253 | 7005 ft | 282 kts | 163° |
| 2026-05-06 00:31 | 35.42443 | 113.48074 | 6994 ft | 282 kts | 163° |
| 2026-05-06 00:31 | 35.40614 | 113.48897 | 6983 ft | 281 kts | 163° |
| 2026-05-06 00:32 | 35.38770 | 113.49725 | 6962 ft | 281 kts | 163° |
| 2026-05-06 00:32 | 35.36936 | 113.50552 | 6946 ft | 281 kts | 163° |
| 2026-05-06 00:32 | 35.35098 | 113.51375 | 6929 ft | 281 kts | 163° |
| 2026-05-06 00:32 | 35.33261 | 113.52199 | 6913 ft | 279 kts | 163° |
| 2026-05-06 00:33 | 35.31479 | 113.53001 | 6901 ft | 263 kts | 163° |
| 2026-05-06 00:33 | 35.29819 | 113.53751 | 6887 ft | 247 kts | 163° |
| 2026-05-06 00:33 | 35.28258 | 113.54452 | 6873 ft | 233 kts | 163° |
| 2026-05-06 00:33 | 35.26750 | 113.55131 | 6869 ft | 228 kts | 163° |
| 2026-05-06 00:34 | 35.25205 | 113.55815 | 6881 ft | 254 kts | 163° |
| 2026-05-06 00:34 | 35.23497 | 113.56572 | 6876 ft | 265 kts | 163° |
| 2026-05-06 00:34 | 35.21739 | 113.57357 | 6873 ft | 267 kts | 163° |
| 2026-05-06 00:34 | 35.19989 | 113.58141 | 6874 ft | 268 kts | 163° |
| 2026-05-06 00:35 | 35.18253 | 113.58920 | 6876 ft | 268 kts | 163° |
| 2026-05-06 00:35 | 35.16509 | 113.59702 | 6877 ft | 268 kts | 163° |
| 2026-05-06 00:35 | 35.14758 | 113.60483 | 6876 ft | 268 kts | 163° |
| 2026-05-06 00:35 | 35.12994 | 113.61269 | 6875 ft | 268 kts | 163° |
| 2026-05-06 00:36 | 35.11244 | 113.62051 | 6872 ft | 268 kts | 163° |
| 2026-05-06 00:36 | 35.09477 | 113.62839 | 6877 ft | 268 kts | 163° |
| 2026-05-06 00:36 | 35.07733 | 113.63606 | 6881 ft | 268 kts | 163° |
| 2026-05-06 00:36 | 35.05980 | 113.64369 | 6875 ft | 267 kts | 163° |
| 2026-05-06 00:37 | 35.04220 | 113.65132 | 6874 ft | 267 kts | 163° |
| 2026-05-06 00:37 | 35.02481 | 113.65887 | 6879 ft | 267 kts | 163° |
| 2026-05-06 00:37 | 35.00739 | 113.66644 | 6881 ft | 266 kts | 163° |
| 2026-05-06 00:37 | 34.98993 | 113.67406 | 6875 ft | 256 kts | 163° |
| 2026-05-06 00:38 | 34.97369 | 113.68118 | 6870 ft | 240 kts | 164° |
| 2026-05-06 00:38 | 34.95853 | 113.68781 | 6867 ft | 226 kts | 164° |
| 2026-05-06 00:38 | 34.94392 | 113.69417 | 6875 ft | 221 kts | 164° |
| 2026-05-06 00:38 | 34.92943 | 113.70040 | 6879 ft | 221 kts | 165° |
| 2026-05-06 00:39 | 34.91489 | 113.70670 | 6879 ft | 221 kts | 165° |
| 2026-05-06 00:39 | 34.90038 | 113.71297 | 6879 ft | 221 kts | 164° |
| 2026-05-06 00:39 | 34.88586 | 113.71926 | 6878 ft | 221 kts | 164° |
| 2026-05-06 00:39 | 34.87128 | 113.72558 | 6875 ft | 221 kts | 165° |